sensor_id;sensor_type;location;lat;lon;timestamp;P1;durP1;ratioP1;P2;durP2;ratioP2
19965;SDS011;10144;50.874;4.762;2022-09-24T00:09:49;35.63;;;19.02;;
19965;SDS011;10144;50.874;4.762;2022-09-24T00:22:20;39.85;;;19.63;;
19965;SDS011;10144;50.874;4.762;2022-09-24T00:28:08;34.58;;;19.40;;
19965;SDS011;10144;50.874;4.762;2022-09-24T00:33:56;38.35;;;19.83;;
19965;SDS011;10144;50.874;4.762;2022-09-24T00:36:24;41.92;;;20.88;;
19965;SDS011;10144;50.874;4.762;2022-09-24T01:15:35;25.63;;;13.70;;
19965;SDS011;10144;50.874;4.762;2022-09-24T01:34:30;28.88;;;12.95;;
19965;SDS011;10144;50.874;4.762;2022-09-24T01:40:29;27.95;;;13.00;;
19965;SDS011;10144;50.874;4.762;2022-09-24T01:46:23;27.10;;;13.75;;
19965;SDS011;10144;50.874;4.762;2022-09-24T01:52:13;32.65;;;14.63;;
19965;SDS011;10144;50.874;4.762;2022-09-24T01:58:13;35.63;;;15.82;;
19965;SDS011;10144;50.874;4.762;2022-09-24T02:04:24;30.63;;;15.55;;
19965;SDS011;10144;50.874;4.762;2022-09-24T02:10:16;33.47;;;16.15;;
19965;SDS011;10144;50.874;4.762;2022-09-24T02:16:07;36.90;;;17.30;;
19965;SDS011;10144;50.874;4.762;2022-09-24T02:22:01;36.67;;;16.88;;
19965;SDS011;10144;50.874;4.762;2022-09-24T02:27:52;40.33;;;19.00;;
19965;SDS011;10144;50.874;4.762;2022-09-24T02:33:43;37.30;;;17.73;;
19965;SDS011;10144;50.874;4.762;2022-09-24T02:39:52;37.83;;;18.08;;
19965;SDS011;10144;50.874;4.762;2022-09-24T02:45:41;40.35;;;18.98;;
19965;SDS011;10144;50.874;4.762;2022-09-24T02:51:32;40.38;;;19.20;;
19965;SDS011;10144;50.874;4.762;2022-09-24T02:57:20;35.80;;;17.75;;
19965;SDS011;10144;50.874;4.762;2022-09-24T03:03:08;36.78;;;17.33;;
19965;SDS011;10144;50.874;4.762;2022-09-24T03:08:56;34.75;;;17.92;;
19965;SDS011;10144;50.874;4.762;2022-09-24T03:14:44;38.50;;;17.30;;
19965;SDS011;10144;50.874;4.762;2022-09-24T03:20:32;33.38;;;17.23;;
19965;SDS011;10144;50.874;4.762;2022-09-24T03:26:21;41.20;;;19.02;;
19965;SDS011;10144;50.874;4.762;2022-09-24T03:32:09;38.22;;;18.90;;
19965;SDS011;10144;50.874;4.762;2022-09-24T03:37:56;37.53;;;18.90;;
19965;SDS011;10144;50.874;4.762;2022-09-24T03:43:45;40.85;;;19.23;;
19965;SDS011;10144;50.874;4.762;2022-09-24T03:49:33;46.35;;;19.95;;
19965;SDS011;10144;50.874;4.762;2022-09-24T03:55:24;45.85;;;19.17;;
19965;SDS011;10144;50.874;4.762;2022-09-24T04:01:13;42.67;;;19.20;;
19965;SDS011;10144;50.874;4.762;2022-09-24T04:07:06;47.53;;;20.27;;
19965;SDS011;10144;50.874;4.762;2022-09-24T04:12:54;50.35;;;19.83;;
19965;SDS011;10144;50.874;4.762;2022-09-24T04:18:43;41.13;;;19.05;;
19965;SDS011;10144;50.874;4.762;2022-09-24T04:24:30;44.67;;;19.55;;
19965;SDS011;10144;50.874;4.762;2022-09-24T04:30:18;39.97;;;19.00;;
19965;SDS011;10144;50.874;4.762;2022-09-24T04:36:07;44.05;;;19.05;;
19965;SDS011;10144;50.874;4.762;2022-09-24T04:41:55;43.80;;;20.33;;
19965;SDS011;10144;50.874;4.762;2022-09-24T04:47:43;45.97;;;19.38;;
19965;SDS011;10144;50.874;4.762;2022-09-24T04:53:35;47.67;;;20.60;;
19965;SDS011;10144;50.874;4.762;2022-09-24T04:59:23;48.67;;;20.20;;
19965;SDS011;10144;50.874;4.762;2022-09-24T05:05:11;50.50;;;21.45;;
19965;SDS011;10144;50.874;4.762;2022-09-24T05:10:59;50.90;;;21.27;;
19965;SDS011;10144;50.874;4.762;2022-09-24T05:16:48;56.45;;;22.70;;
19965;SDS011;10144;50.874;4.762;2022-09-24T05:22:43;54.28;;;22.83;;
19965;SDS011;10144;50.874;4.762;2022-09-24T05:28:32;52.15;;;22.42;;
19965;SDS011;10144;50.874;4.762;2022-09-24T05:34:21;58.67;;;23.45;;
19965;SDS011;10144;50.874;4.762;2022-09-24T05:40:08;58.97;;;23.23;;
19965;SDS011;10144;50.874;4.762;2022-09-24T05:59:05;61.22;;;23.98;;
19965;SDS011;10144;50.874;4.762;2022-09-24T06:04:53;58.38;;;23.08;;
19965;SDS011;10144;50.874;4.762;2022-09-24T06:10:41;59.60;;;22.80;;
19965;SDS011;10144;50.874;4.762;2022-09-24T06:26:27;62.28;;;22.85;;
19965;SDS011;10144;50.874;4.762;2022-09-24T06:32:18;73.45;;;24.23;;
19965;SDS011;10144;50.874;4.762;2022-09-24T06:38:07;66.75;;;22.73;;
19965;SDS011;10144;50.874;4.762;2022-09-24T06:44:01;71.28;;;23.08;;
19965;SDS011;10144;50.874;4.762;2022-09-24T06:49:54;66.57;;;21.65;;
19965;SDS011;10144;50.874;4.762;2022-09-24T06:55:42;62.10;;;21.27;;
19965;SDS011;10144;50.874;4.762;2022-09-24T07:01:30;67.47;;;21.85;;
19965;SDS011;10144;50.874;4.762;2022-09-24T07:07:18;67.88;;;20.90;;
19965;SDS011;10144;50.874;4.762;2022-09-24T07:13:16;61.05;;;20.70;;
19965;SDS011;10144;50.874;4.762;2022-09-24T07:19:05;60.88;;;21.10;;
19965;SDS011;10144;50.874;4.762;2022-09-24T07:24:53;61.63;;;21.42;;
19965;SDS011;10144;50.874;4.762;2022-09-24T07:27:20;69.75;;;21.45;;
19965;SDS011;10144;50.874;4.762;2022-09-24T07:36:08;59.30;;;21.20;;
19965;SDS011;10144;50.874;4.762;2022-09-24T07:45:10;59.72;;;20.92;;
19965;SDS011;10144;50.874;4.762;2022-09-24T07:54:33;62.38;;;20.30;;
19965;SDS011;10144;50.874;4.762;2022-09-24T08:00:25;64.10;;;22.90;;
19965;SDS011;10144;50.874;4.762;2022-09-24T08:06:19;55.22;;;20.63;;
19965;SDS011;10144;50.874;4.762;2022-09-24T08:08:52;58.85;;;21.70;;
19965;SDS011;10144;50.874;4.762;2022-09-24T08:14:07;61.58;;;22.00;;
19965;SDS011;10144;50.874;4.762;2022-09-24T08:16:34;60.30;;;21.58;;
19965;SDS011;10144;50.874;4.762;2022-09-24T08:19:01;65.95;;;22.15;;
19965;SDS011;10144;50.874;4.762;2022-09-24T08:27:42;57.38;;;20.83;;
19965;SDS011;10144;50.874;4.762;2022-09-24T08:30:23;55.05;;;20.83;;
19965;SDS011;10144;50.874;4.762;2022-09-24T08:32:51;54.70;;;20.42;;
19965;SDS011;10144;50.874;4.762;2022-09-24T08:35:26;54.70;;;20.15;;
19965;SDS011;10144;50.874;4.762;2022-09-24T08:37:55;54.92;;;20.13;;
19965;SDS011;10144;50.874;4.762;2022-09-24T08:40:27;49.85;;;19.13;;
19965;SDS011;10144;50.874;4.762;2022-09-24T09:04:24;49.42;;;19.85;;
19965;SDS011;10144;50.874;4.762;2022-09-24T09:19:52;51.17;;;18.75;;
19965;SDS011;10144;50.874;4.762;2022-09-24T09:25:13;50.70;;;18.73;;
19965;SDS011;10144;50.874;4.762;2022-09-24T09:27:56;52.33;;;19.15;;
19965;SDS011;10144;50.874;4.762;2022-09-24T09:30:37;50.42;;;18.33;;
19965;SDS011;10144;50.874;4.762;2022-09-24T09:33:48;50.83;;;18.17;;
19965;SDS011;10144;50.874;4.762;2022-09-24T09:39:53;51.42;;;17.77;;
19965;SDS011;10144;50.874;4.762;2022-09-24T09:49:04;47.63;;;17.83;;
19965;SDS011;10144;50.874;4.762;2022-09-24T09:51:35;45.95;;;18.35;;
19965;SDS011;10144;50.874;4.762;2022-09-24T09:54:13;44.67;;;17.90;;
19965;SDS011;10144;50.874;4.762;2022-09-24T09:56:57;40.80;;;16.88;;
19965;SDS011;10144;50.874;4.762;2022-09-24T09:59:28;41.60;;;16.73;;
19965;SDS011;10144;50.874;4.762;2022-09-24T10:01:59;40.58;;;16.08;;
19965;SDS011;10144;50.874;4.762;2022-09-24T10:04:26;45.17;;;16.17;;
19965;SDS011;10144;50.874;4.762;2022-09-24T10:13:07;43.33;;;17.63;;
19965;SDS011;10144;50.874;4.762;2022-09-24T10:25:34;32.10;;;13.85;;
19965;SDS011;10144;50.874;4.762;2022-09-24T10:34:30;34.30;;;14.05;;
19965;SDS011;10144;50.874;4.762;2022-09-24T10:56:10;42.05;;;15.98;;
19965;SDS011;10144;50.874;4.762;2022-09-24T11:02:18;45.35;;;16.80;;
19965;SDS011;10144;50.874;4.762;2022-09-24T11:09:07;43.58;;;15.88;;
19965;SDS011;10144;50.874;4.762;2022-09-24T11:14:46;40.92;;;15.55;;
19965;SDS011;10144;50.874;4.762;2022-09-24T11:20:47;43.03;;;15.40;;
19965;SDS011;10144;50.874;4.762;2022-09-24T11:34:09;41.83;;;14.90;;
19965;SDS011;10144;50.874;4.762;2022-09-24T12:08:07;39.28;;;13.52;;
19965;SDS011;10144;50.874;4.762;2022-09-24T12:20:11;37.92;;;13.48;;
19965;SDS011;10144;50.874;4.762;2022-09-24T12:26:09;32.08;;;13.18;;
19965;SDS011;10144;50.874;4.762;2022-09-24T12:32:05;32.10;;;12.82;;
19965;SDS011;10144;50.874;4.762;2022-09-24T12:38:25;31.30;;;12.55;;
19965;SDS011;10144;50.874;4.762;2022-09-24T12:53:58;36.78;;;13.30;;
19965;SDS011;10144;50.874;4.762;2022-09-24T12:59:52;26.63;;;10.73;;
19965;SDS011;10144;50.874;4.762;2022-09-24T13:23:57;25.80;;;11.10;;
19965;SDS011;10144;50.874;4.762;2022-09-24T13:45:31;26.58;;;10.88;;
19965;SDS011;10144;50.874;4.762;2022-09-24T13:48:04;28.67;;;11.60;;
19965;SDS011;10144;50.874;4.762;2022-09-24T13:50:44;23.70;;;10.30;;
19965;SDS011;10144;50.874;4.762;2022-09-24T13:56:37;20.52;;;9.98;;
19965;SDS011;10144;50.874;4.762;2022-09-24T14:05:22;29.15;;;11.57;;
19965;SDS011;10144;50.874;4.762;2022-09-24T14:08:00;24.63;;;10.93;;
19965;SDS011;10144;50.874;4.762;2022-09-24T14:10:29;20.13;;;9.98;;
19965;SDS011;10144;50.874;4.762;2022-09-24T14:36:56;26.63;;;10.43;;
19965;SDS011;10144;50.874;4.762;2022-09-24T14:43:16;21.02;;;10.35;;
19965;SDS011;10144;50.874;4.762;2022-09-24T15:04:26;22.80;;;10.70;;
19965;SDS011;10144;50.874;4.762;2022-09-24T15:10:18;27.85;;;10.85;;
19965;SDS011;10144;50.874;4.762;2022-09-24T15:18:39;18.17;;;9.18;;
19965;SDS011;10144;50.874;4.762;2022-09-24T15:24:26;22.48;;;11.02;;
19965;SDS011;10144;50.874;4.762;2022-09-24T15:30:18;23.20;;;10.93;;
19965;SDS011;10144;50.874;4.762;2022-09-24T15:36:07;23.10;;;11.15;;
19965;SDS011;10144;50.874;4.762;2022-09-24T15:41:56;25.30;;;11.23;;
19965;SDS011;10144;50.874;4.762;2022-09-24T15:47:44;22.45;;;11.50;;
19965;SDS011;10144;50.874;4.762;2022-09-24T15:56:24;32.47;;;13.52;;
19965;SDS011;10144;50.874;4.762;2022-09-24T16:02:32;23.40;;;11.85;;
19965;SDS011;10144;50.874;4.762;2022-09-24T16:08:20;29.23;;;12.38;;
19965;SDS011;10144;50.874;4.762;2022-09-24T16:14:09;26.25;;;11.95;;
19965;SDS011;10144;50.874;4.762;2022-09-24T16:19:57;26.23;;;12.90;;
19965;SDS011;10144;50.874;4.762;2022-09-24T16:25:55;25.05;;;12.80;;
19965;SDS011;10144;50.874;4.762;2022-09-24T16:31:44;24.13;;;12.25;;
19965;SDS011;10144;50.874;4.762;2022-09-24T16:37:33;27.70;;;12.48;;
19965;SDS011;10144;50.874;4.762;2022-09-24T16:43:20;23.98;;;12.30;;
19965;SDS011;10144;50.874;4.762;2022-09-24T16:49:08;29.98;;;13.18;;
19965;SDS011;10144;50.874;4.762;2022-09-24T16:54:56;29.58;;;13.02;;
19965;SDS011;10144;50.874;4.762;2022-09-24T17:00:44;38.92;;;16.08;;
19965;SDS011;10144;50.874;4.762;2022-09-24T17:06:32;34.90;;;15.52;;
19965;SDS011;10144;50.874;4.762;2022-09-24T17:12:20;34.97;;;16.73;;
19965;SDS011;10144;50.874;4.762;2022-09-24T17:18:08;32.20;;;15.15;;
19965;SDS011;10144;50.874;4.762;2022-09-24T17:23:55;35.70;;;16.23;;
19965;SDS011;10144;50.874;4.762;2022-09-24T17:29:43;31.75;;;15.82;;
19965;SDS011;10144;50.874;4.762;2022-09-24T17:35:31;32.00;;;16.08;;
19965;SDS011;10144;50.874;4.762;2022-09-24T17:41:18;35.72;;;14.77;;
19965;SDS011;10144;50.874;4.762;2022-09-24T17:47:06;36.55;;;15.77;;
19965;SDS011;10144;50.874;4.762;2022-09-24T17:52:53;30.35;;;14.73;;
19965;SDS011;10144;50.874;4.762;2022-09-24T17:58:43;40.17;;;17.55;;
19965;SDS011;10144;50.874;4.762;2022-09-24T18:04:48;39.55;;;17.92;;
19965;SDS011;10144;50.874;4.762;2022-09-24T18:17:30;40.40;;;18.95;;
19965;SDS011;10144;50.874;4.762;2022-09-24T18:23:17;46.17;;;19.95;;
19965;SDS011;10144;50.874;4.762;2022-09-24T18:29:07;45.53;;;19.67;;
19965;SDS011;10144;50.874;4.762;2022-09-24T18:35:01;41.97;;;18.88;;
19965;SDS011;10144;50.874;4.762;2022-09-24T18:40:48;45.40;;;20.05;;
19965;SDS011;10144;50.874;4.762;2022-09-24T18:46:35;47.53;;;20.50;;
19965;SDS011;10144;50.874;4.762;2022-09-24T18:52:23;43.47;;;19.40;;
19965;SDS011;10144;50.874;4.762;2022-09-24T18:58:10;46.67;;;18.35;;
19965;SDS011;10144;50.874;4.762;2022-09-24T19:03:59;43.17;;;19.48;;
19965;SDS011;10144;50.874;4.762;2022-09-24T19:09:47;42.50;;;20.25;;
19965;SDS011;10144;50.874;4.762;2022-09-24T19:15:35;46.88;;;20.38;;
19965;SDS011;10144;50.874;4.762;2022-09-24T19:21:24;53.95;;;21.77;;
19965;SDS011;10144;50.874;4.762;2022-09-24T19:27:13;49.40;;;21.77;;
19965;SDS011;10144;50.874;4.762;2022-09-24T19:33:01;45.58;;;20.65;;
19965;SDS011;10144;50.874;4.762;2022-09-24T19:38:48;47.10;;;20.23;;
19965;SDS011;10144;50.874;4.762;2022-09-24T19:44:36;46.60;;;20.70;;
19965;SDS011;10144;50.874;4.762;2022-09-24T19:50:24;47.28;;;19.58;;
19965;SDS011;10144;50.874;4.762;2022-09-24T19:56:11;40.13;;;18.25;;
19965;SDS011;10144;50.874;4.762;2022-09-24T20:02:00;41.05;;;17.40;;
19965;SDS011;10144;50.874;4.762;2022-09-24T20:07:48;27.55;;;12.75;;
19965;SDS011;10144;50.874;4.762;2022-09-24T20:13:36;21.83;;;8.77;;
19965;SDS011;10144;50.874;4.762;2022-09-24T20:19:26;15.45;;;5.15;;
19965;SDS011;10144;50.874;4.762;2022-09-24T20:25:14;12.85;;;3.88;;
19965;SDS011;10144;50.874;4.762;2022-09-24T20:31:12;12.10;;;3.25;;
19965;SDS011;10144;50.874;4.762;2022-09-24T20:37:02;10.00;;;3.90;;
19965;SDS011;10144;50.874;4.762;2022-09-24T20:42:51;11.07;;;3.70;;
19965;SDS011;10144;50.874;4.762;2022-09-24T20:48:39;11.98;;;3.88;;
19965;SDS011;10144;50.874;4.762;2022-09-24T20:54:27;13.43;;;4.70;;
19965;SDS011;10144;50.874;4.762;2022-09-24T21:00:15;11.45;;;4.80;;
19965;SDS011;10144;50.874;4.762;2022-09-24T21:06:04;14.82;;;5.50;;
19965;SDS011;10144;50.874;4.762;2022-09-24T21:11:53;19.77;;;5.90;;
19965;SDS011;10144;50.874;4.762;2022-09-24T21:17:41;17.55;;;6.68;;
19965;SDS011;10144;50.874;4.762;2022-09-24T21:23:29;17.10;;;7.40;;
19965;SDS011;10144;50.874;4.762;2022-09-24T21:29:19;25.30;;;8.18;;
19965;SDS011;10144;50.874;4.762;2022-09-24T21:35:07;26.83;;;9.25;;
19965;SDS011;10144;50.874;4.762;2022-09-24T21:40:56;26.73;;;10.05;;
19965;SDS011;10144;50.874;4.762;2022-09-24T21:46:57;25.77;;;9.90;;
19965;SDS011;10144;50.874;4.762;2022-09-24T21:52:45;27.40;;;10.05;;
19965;SDS011;10144;50.874;4.762;2022-09-24T21:58:35;27.95;;;10.80;;
19965;SDS011;10144;50.874;4.762;2022-09-24T22:04:23;27.52;;;10.07;;
19965;SDS011;10144;50.874;4.762;2022-09-24T22:10:11;25.13;;;9.52;;
19965;SDS011;10144;50.874;4.762;2022-09-24T22:16:00;30.02;;;9.52;;
19965;SDS011;10144;50.874;4.762;2022-09-24T22:21:48;26.60;;;9.32;;
19965;SDS011;10144;50.874;4.762;2022-09-24T22:27:35;26.02;;;9.57;;
19965;SDS011;10144;50.874;4.762;2022-09-24T22:33:23;23.95;;;9.50;;
19965;SDS011;10144;50.874;4.762;2022-09-24T22:39:29;29.48;;;9.63;;
19965;SDS011;10144;50.874;4.762;2022-09-24T22:45:23;21.52;;;8.65;;
19965;SDS011;10144;50.874;4.762;2022-09-24T22:51:11;28.38;;;8.82;;
19965;SDS011;10144;50.874;4.762;2022-09-24T22:56:59;24.83;;;9.40;;
19965;SDS011;10144;50.874;4.762;2022-09-24T23:02:47;25.17;;;9.13;;
19965;SDS011;10144;50.874;4.762;2022-09-24T23:08:35;23.20;;;8.70;;
19965;SDS011;10144;50.874;4.762;2022-09-24T23:14:24;22.40;;;8.60;;
19965;SDS011;10144;50.874;4.762;2022-09-24T23:20:12;25.00;;;8.57;;
19965;SDS011;10144;50.874;4.762;2022-09-24T23:26:01;25.98;;;8.60;;
19965;SDS011;10144;50.874;4.762;2022-09-24T23:31:52;22.90;;;8.57;;
19965;SDS011;10144;50.874;4.762;2022-09-24T23:37:40;26.50;;;8.88;;
19965;SDS011;10144;50.874;4.762;2022-09-24T23:43:28;22.37;;;8.50;;
19965;SDS011;10144;50.874;4.762;2022-09-24T23:49:16;33.90;;;9.20;;
19965;SDS011;10144;50.874;4.762;2022-09-24T23:55:04;29.67;;;9.53;;
